Scobey, MT (59263)

8:33 AM MDT on April 25, 2015 (GMT -0600)
NonFedAWOS | | Change Station
CLOSE
Current Station
Personal Weather Station
Location: Scobey, MT
Elevation: 2432 ft
Nearby Weather Stations

Elev 2432 ft 48.81 °N, 105.44 °W | Updated 38 minutes ago

Mostly Cloudy
Mostly Cloudy
48 °F
Feels Like 42 °F
N
15
Wind Variable Wind from ESE
Gusts 21.0 mph

Today
High -- | Low -- °F
--% Chance of Precip.
Yesterday
High -- | Low -- °F
Precip. -- in
5:52 AM 8:08 PM
Waxing Crescent, 46% visible
Pressure 29.66 in
Visibility 9.0 miles
Clouds Clear
Windchill 42 °F
Dew Point 36 °F
Humidity 62%
Rainfall in
Snow Depth Not available.
UV 1 out of 12
Pollen 9.50 out of 12
Air Quality Not available.
Flu Activity Local Activity
METAR KOLF 251353Z AUTO 12006KT 9SM CLR 12/06 A2965 RMK AO2 SLP042 T01220056

More Conditions Fewer Conditions

Pressure 29.66 in
Visibility 9.0 miles
Clouds Clear
Windchill 42 °F
Dew Point 36 °F
Humidity 62%
Rainfall in
Snow Depth Not available.
UV 1 out of 12
Pollen 9.50 out of 12
Air Quality Not available.
Flu Activity Local Activity
METAR KOLF 251353Z AUTO 12006KT 9SM CLR 12/06 A2965 RMK AO2 SLP042 T01220056

More Conditions Fewer Conditions

10-Day Weather Forecast

Almanac

Astronomy

Apr. 25, 2015 Rise Set
Actual Time
Civil Twilight
Nautical Twilight
Astronomical Twilight
Moon
Length of Visible Light
Length of Day
Tomorrow will be .
, % of the Moon is Illuminated

Today's Extremes

State Highs State Lows

Community

WunderPhotos

Upload Photos

1,816,688 photos uploaded!

WunderBlogs® & News

Nearby

Air Quality

  Air Quality AQ Index Pollutant
Not available.

Snow Depth

Station Depth Elevation

Earthquake Activity

City Distance Mag. Time & Date
Minimum magnitude displayed is 2.5.

Coastal Water Temperatures

Place Temperature

Stations

Nearby Weather Stations

Station Location Temp. Windchill Dew Point Humidity Wind Precip. Elev Updated Type